Terminal Aerodrome Forecast
Issued by NWS

Home | Current Version | Previous Version | Text Only | Print | Product List | Glossary On
Versions: 1 2 3 4 5 6 7 8 9 10 11 12 13 14 15 16 17 18 19 20 21 22 23 24 25 26 27 28 29 30
000
FTUS42 KGSP 211741 AAC
TAFHKY
TAF AMD
KHKY 211741Z 2118/2218 11003KT P6SM OVC015
     FM212100 06006KT P6SM OVC024
     FM220500 06006KT 5SM -RA OVC008
     FM220900 04006KT 3SM -RADZ BR OVC004
     FM221600 04006KT 4SM BR OVC006=

USA.gov is the U.S. government's official web portal to all federal, state and local government web resources and services.